sensor_id;sensor_type;location;lat;lon;timestamp;P1;durP1;ratioP1;P2;durP2;ratioP2
51824;SDS011;37879;52.986;6.282;2022-11-15T00:00:17;32.90;;;18.52;;
51824;SDS011;37879;52.986;6.282;2022-11-15T00:02:43;30.90;;;16.15;;
51824;SDS011;37879;52.986;6.282;2022-11-15T00:05:09;28.40;;;15.02;;
51824;SDS011;37879;52.986;6.282;2022-11-15T00:07:34;23.98;;;14.52;;
51824;SDS011;37879;52.986;6.282;2022-11-15T00:10:00;25.08;;;14.95;;
51824;SDS011;37879;52.986;6.282;2022-11-15T00:12:27;24.40;;;15.40;;
51824;SDS011;37879;52.986;6.282;2022-11-15T00:14:53;25.63;;;15.30;;
51824;SDS011;37879;52.986;6.282;2022-11-15T00:17:19;23.58;;;13.98;;
51824;SDS011;37879;52.986;6.282;2022-11-15T00:19:44;21.02;;;11.95;;
51824;SDS011;37879;52.986;6.282;2022-11-15T00:22:10;22.63;;;13.77;;
51824;SDS011;37879;52.986;6.282;2022-11-15T00:24:36;22.80;;;13.50;;
51824;SDS011;37879;52.986;6.282;2022-11-15T00:27:01;25.08;;;12.95;;
51824;SDS011;37879;52.986;6.282;2022-11-15T00:29:27;25.25;;;14.80;;
51824;SDS011;37879;52.986;6.282;2022-11-15T00:31:53;22.27;;;12.65;;
51824;SDS011;37879;52.986;6.282;2022-11-15T00:34:18;21.10;;;12.70;;
51824;SDS011;37879;52.986;6.282;2022-11-15T00:36:44;15.45;;;10.00;;
51824;SDS011;37879;52.986;6.282;2022-11-15T00:39:10;19.50;;;11.02;;
51824;SDS011;37879;52.986;6.282;2022-11-15T00:41:35;19.38;;;10.80;;
51824;SDS011;37879;52.986;6.282;2022-11-15T00:44:01;26.40;;;15.90;;
51824;SDS011;37879;52.986;6.282;2022-11-15T00:46:27;25.08;;;15.05;;
51824;SDS011;37879;52.986;6.282;2022-11-15T00:48:52;26.45;;;15.00;;
51824;SDS011;37879;52.986;6.282;2022-11-15T00:51:18;22.27;;;13.13;;
51824;SDS011;37879;52.986;6.282;2022-11-15T00:53:44;25.67;;;14.23;;
51824;SDS011;37879;52.986;6.282;2022-11-15T00:56:09;22.10;;;11.77;;
51824;SDS011;37879;52.986;6.282;2022-11-15T00:58:35;23.15;;;12.50;;
51824;SDS011;37879;52.986;6.282;2022-11-15T01:01:11;24.08;;;15.07;;
51824;SDS011;37879;52.986;6.282;2022-11-15T01:03:39;27.42;;;15.35;;
51824;SDS011;37879;52.986;6.282;2022-11-15T01:06:06;24.65;;;14.98;;
51824;SDS011;37879;52.986;6.282;2022-11-15T01:08:32;24.73;;;15.00;;
51824;SDS011;37879;52.986;6.282;2022-11-15T01:11:02;28.13;;;16.27;;
51824;SDS011;37879;52.986;6.282;2022-11-15T01:13:33;19.25;;;11.70;;
51824;SDS011;37879;52.986;6.282;2022-11-15T01:16:10;25.55;;;13.95;;
51824;SDS011;37879;52.986;6.282;2022-11-15T01:18:38;24.90;;;16.13;;
51824;SDS011;37879;52.986;6.282;2022-11-15T01:21:06;27.30;;;15.68;;
51824;SDS011;37879;52.986;6.282;2022-11-15T01:23:33;23.92;;;13.70;;
51824;SDS011;37879;52.986;6.282;2022-11-15T01:26:02;23.95;;;14.07;;
51824;SDS011;37879;52.986;6.282;2022-11-15T01:28:34;25.65;;;16.27;;
51824;SDS011;37879;52.986;6.282;2022-11-15T01:31:02;23.70;;;14.30;;
51824;SDS011;37879;52.986;6.282;2022-11-15T01:33:29;25.63;;;15.02;;
51824;SDS011;37879;52.986;6.282;2022-11-15T01:35:56;26.42;;;16.08;;
51824;SDS011;37879;52.986;6.282;2022-11-15T01:38:22;29.33;;;15.02;;
51824;SDS011;37879;52.986;6.282;2022-11-15T01:40:48;25.13;;;14.63;;
51824;SDS011;37879;52.986;6.282;2022-11-15T01:45:49;27.15;;;15.38;;
51824;SDS011;37879;52.986;6.282;2022-11-15T01:48:19;26.23;;;14.90;;
51824;SDS011;37879;52.986;6.282;2022-11-15T01:50:47;24.67;;;13.73;;
51824;SDS011;37879;52.986;6.282;2022-11-15T01:53:14;28.00;;;15.13;;
51824;SDS011;37879;52.986;6.282;2022-11-15T01:55:40;25.23;;;13.32;;
51824;SDS011;37879;52.986;6.282;2022-11-15T01:58:06;27.05;;;15.80;;
51824;SDS011;37879;52.986;6.282;2022-11-15T02:00:32;28.27;;;15.52;;
51824;SDS011;37879;52.986;6.282;2022-11-15T02:02:59;25.42;;;14.50;;
51824;SDS011;37879;52.986;6.282;2022-11-15T02:05:24;30.08;;;17.67;;
51824;SDS011;37879;52.986;6.282;2022-11-15T02:07:50;24.30;;;13.25;;
51824;SDS011;37879;52.986;6.282;2022-11-15T02:10:18;26.60;;;14.13;;
51824;SDS011;37879;52.986;6.282;2022-11-15T02:12:47;26.88;;;14.75;;
51824;SDS011;37879;52.986;6.282;2022-11-15T02:15:14;24.95;;;13.98;;
51824;SDS011;37879;52.986;6.282;2022-11-15T02:23:32;25.92;;;14.68;;
51824;SDS011;37879;52.986;6.282;2022-11-15T02:29:03;32.28;;;16.58;;
51824;SDS011;37879;52.986;6.282;2022-11-15T02:34:08;31.50;;;16.17;;
51824;SDS011;37879;52.986;6.282;2022-11-15T02:37:02;30.15;;;15.13;;
51824;SDS011;37879;52.986;6.282;2022-11-15T02:39:51;25.85;;;15.68;;
51824;SDS011;37879;52.986;6.282;2022-11-15T02:43:11;27.33;;;15.35;;
51824;SDS011;37879;52.986;6.282;2022-11-15T02:45:43;35.25;;;16.90;;
51824;SDS011;37879;52.986;6.282;2022-11-15T02:48:12;24.10;;;12.50;;
51824;SDS011;37879;52.986;6.282;2022-11-15T02:50:40;29.00;;;15.57;;
51824;SDS011;37879;52.986;6.282;2022-11-15T02:53:07;31.60;;;15.63;;
51824;SDS011;37879;52.986;6.282;2022-11-15T02:55:38;27.55;;;15.27;;
51824;SDS011;37879;52.986;6.282;2022-11-15T03:09:31;31.80;;;15.93;;
51824;SDS011;37879;52.986;6.282;2022-11-15T03:12:04;31.55;;;16.30;;
51824;SDS011;37879;52.986;6.282;2022-11-15T03:14:49;24.60;;;12.85;;
51824;SDS011;37879;52.986;6.282;2022-11-15T03:17:55;32.08;;;16.35;;
51824;SDS011;37879;52.986;6.282;2022-11-15T03:20:20;29.50;;;15.70;;
51824;SDS011;37879;52.986;6.282;2022-11-15T03:22:46;32.20;;;16.33;;
51824;SDS011;37879;52.986;6.282;2022-11-15T03:25:18;33.80;;;17.35;;
51824;SDS011;37879;52.986;6.282;2022-11-15T03:27:49;38.15;;;18.25;;
51824;SDS011;37879;52.986;6.282;2022-11-15T03:30:17;29.27;;;15.63;;
51824;SDS011;37879;52.986;6.282;2022-11-15T03:32:49;33.47;;;16.80;;
51824;SDS011;37879;52.986;6.282;2022-11-15T03:35:23;37.10;;;17.95;;
51824;SDS011;37879;52.986;6.282;2022-11-15T03:40:43;40.47;;;17.98;;
51824;SDS011;37879;52.986;6.282;2022-11-15T03:43:26;38.60;;;17.65;;
51824;SDS011;37879;52.986;6.282;2022-11-15T03:46:05;35.67;;;18.13;;
51824;SDS011;37879;52.986;6.282;2022-11-15T03:48:39;33.65;;;14.15;;
51824;SDS011;37879;52.986;6.282;2022-11-15T03:51:18;40.13;;;18.40;;
51824;SDS011;37879;52.986;6.282;2022-11-15T03:53:45;33.50;;;16.42;;
51824;SDS011;37879;52.986;6.282;2022-11-15T03:56:11;34.25;;;15.52;;
51824;SDS011;37879;52.986;6.282;2022-11-15T03:58:36;33.30;;;16.15;;
51824;SDS011;37879;52.986;6.282;2022-11-15T04:01:02;36.00;;;17.42;;
51824;SDS011;37879;52.986;6.282;2022-11-15T04:03:28;38.58;;;18.70;;
51824;SDS011;37879;52.986;6.282;2022-11-15T04:05:53;37.17;;;17.13;;
51824;SDS011;37879;52.986;6.282;2022-11-15T04:08:19;34.10;;;16.70;;
51824;SDS011;37879;52.986;6.282;2022-11-15T04:10:45;37.03;;;17.90;;
51824;SDS011;37879;52.986;6.282;2022-11-15T04:13:13;31.92;;;15.30;;
51824;SDS011;37879;52.986;6.282;2022-11-15T04:15:38;35.45;;;17.77;;
51824;SDS011;37879;52.986;6.282;2022-11-15T04:18:04;33.03;;;15.20;;
51824;SDS011;37879;52.986;6.282;2022-11-15T04:20:30;35.38;;;17.58;;
51824;SDS011;37879;52.986;6.282;2022-11-15T04:23:22;35.83;;;15.53;;
51824;SDS011;37879;52.986;6.282;2022-11-15T04:26:14;39.15;;;17.65;;
51824;SDS011;37879;52.986;6.282;2022-11-15T04:28:44;31.70;;;14.80;;
51824;SDS011;37879;52.986;6.282;2022-11-15T04:31:29;36.25;;;17.05;;
51824;SDS011;37879;52.986;6.282;2022-11-15T04:33:54;36.05;;;17.33;;
51824;SDS011;37879;52.986;6.282;2022-11-15T04:36:20;33.70;;;17.73;;
51824;SDS011;37879;52.986;6.282;2022-11-15T04:39:05;33.42;;;14.48;;
51824;SDS011;37879;52.986;6.282;2022-11-15T04:41:31;36.60;;;15.98;;
51824;SDS011;37879;52.986;6.282;2022-11-15T04:43:56;32.03;;;14.02;;
51824;SDS011;37879;52.986;6.282;2022-11-15T04:46:23;31.98;;;16.27;;
51824;SDS011;37879;52.986;6.282;2022-11-15T04:48:49;34.15;;;16.48;;
51824;SDS011;37879;52.986;6.282;2022-11-15T04:51:15;37.55;;;18.10;;
51824;SDS011;37879;52.986;6.282;2022-11-15T04:53:41;35.92;;;18.85;;
51824;SDS011;37879;52.986;6.282;2022-11-15T04:56:06;42.20;;;19.33;;
51824;SDS011;37879;52.986;6.282;2022-11-15T04:58:32;42.53;;;20.48;;
51824;SDS011;37879;52.986;6.282;2022-11-15T05:01:05;48.50;;;21.65;;
51824;SDS011;37879;52.986;6.282;2022-11-15T05:03:35;53.72;;;21.75;;
51824;SDS011;37879;52.986;6.282;2022-11-15T05:06:20;31.83;;;15.23;;
51824;SDS011;37879;52.986;6.282;2022-11-15T05:08:46;45.58;;;21.20;;
51824;SDS011;37879;52.986;6.282;2022-11-15T05:11:11;49.60;;;21.42;;
51824;SDS011;37879;52.986;6.282;2022-11-15T05:13:37;53.47;;;24.08;;
51824;SDS011;37879;52.986;6.282;2022-11-15T05:16:03;49.70;;;23.25;;
51824;SDS011;37879;52.986;6.282;2022-11-15T05:18:28;42.05;;;19.25;;
51824;SDS011;37879;52.986;6.282;2022-11-15T05:20:54;42.00;;;20.13;;
51824;SDS011;37879;52.986;6.282;2022-11-15T05:23:20;48.33;;;21.63;;
51824;SDS011;37879;52.986;6.282;2022-11-15T05:25:46;34.20;;;16.45;;
51824;SDS011;37879;52.986;6.282;2022-11-15T05:28:12;52.17;;;23.38;;
51824;SDS011;37879;52.986;6.282;2022-11-15T05:30:37;52.88;;;21.85;;
51824;SDS011;37879;52.986;6.282;2022-11-15T05:33:03;39.35;;;17.27;;
51824;SDS011;37879;52.986;6.282;2022-11-15T05:35:30;55.33;;;25.08;;
51824;SDS011;37879;52.986;6.282;2022-11-15T05:38:02;56.63;;;26.58;;
51824;SDS011;37879;52.986;6.282;2022-11-15T05:40:28;44.65;;;19.98;;
51824;SDS011;37879;52.986;6.282;2022-11-15T05:42:55;56.35;;;23.58;;
51824;SDS011;37879;52.986;6.282;2022-11-15T05:45:21;48.80;;;23.73;;
51824;SDS011;37879;52.986;6.282;2022-11-15T05:47:47;49.85;;;24.20;;
51824;SDS011;37879;52.986;6.282;2022-11-15T05:50:15;51.17;;;23.02;;
51824;SDS011;37879;52.986;6.282;2022-11-15T05:52:43;48.40;;;21.63;;
51824;SDS011;37879;52.986;6.282;2022-11-15T05:55:11;55.13;;;23.85;;
51824;SDS011;37879;52.986;6.282;2022-11-15T05:57:37;44.05;;;19.60;;
51824;SDS011;37879;52.986;6.282;2022-11-15T06:00:03;51.53;;;22.83;;
51824;SDS011;37879;52.986;6.282;2022-11-15T06:02:30;50.15;;;22.60;;
51824;SDS011;37879;52.986;6.282;2022-11-15T06:04:55;50.83;;;23.20;;
51824;SDS011;37879;52.986;6.282;2022-11-15T06:07:21;50.30;;;23.30;;
51824;SDS011;37879;52.986;6.282;2022-11-15T06:09:47;48.38;;;22.35;;
51824;SDS011;37879;52.986;6.282;2022-11-15T06:12:13;45.88;;;21.92;;
51824;SDS011;37879;52.986;6.282;2022-11-15T06:14:38;47.85;;;21.40;;
51824;SDS011;37879;52.986;6.282;2022-11-15T06:17:04;59.10;;;23.83;;
51824;SDS011;37879;52.986;6.282;2022-11-15T06:19:30;42.95;;;20.30;;
51824;SDS011;37879;52.986;6.282;2022-11-15T06:22:00;49.78;;;23.52;;
51824;SDS011;37879;52.986;6.282;2022-11-15T06:24:26;47.97;;;21.83;;
51824;SDS011;37879;52.986;6.282;2022-11-15T06:26:52;50.28;;;21.13;;
51824;SDS011;37879;52.986;6.282;2022-11-15T06:29:18;43.47;;;22.17;;
51824;SDS011;37879;52.986;6.282;2022-11-15T06:31:44;32.55;;;17.20;;
51824;SDS011;37879;52.986;6.282;2022-11-15T06:34:09;43.22;;;21.10;;
51824;SDS011;37879;52.986;6.282;2022-11-15T06:36:35;49.78;;;22.88;;
51824;SDS011;37879;52.986;6.282;2022-11-15T06:39:05;37.78;;;17.77;;
51824;SDS011;37879;52.986;6.282;2022-11-15T06:41:33;35.50;;;18.42;;
51824;SDS011;37879;52.986;6.282;2022-11-15T06:43:59;48.00;;;21.75;;
51824;SDS011;37879;52.986;6.282;2022-11-15T06:46:24;41.03;;;21.73;;
51824;SDS011;37879;52.986;6.282;2022-11-15T06:48:51;49.65;;;22.35;;
51824;SDS011;37879;52.986;6.282;2022-11-15T06:51:17;50.03;;;23.77;;
51824;SDS011;37879;52.986;6.282;2022-11-15T06:53:43;37.78;;;19.23;;
51824;SDS011;37879;52.986;6.282;2022-11-15T06:56:09;41.80;;;21.45;;
51824;SDS011;37879;52.986;6.282;2022-11-15T06:58:35;38.92;;;18.67;;
51824;SDS011;37879;52.986;6.282;2022-11-15T07:01:05;40.72;;;19.88;;
51824;SDS011;37879;52.986;6.282;2022-11-15T07:03:36;47.17;;;22.55;;
51824;SDS011;37879;52.986;6.282;2022-11-15T07:06:03;42.35;;;20.45;;
51824;SDS011;37879;52.986;6.282;2022-11-15T07:08:29;43.15;;;22.52;;
51824;SDS011;37879;52.986;6.282;2022-11-15T07:10:57;39.83;;;20.20;;
51824;SDS011;37879;52.986;6.282;2022-11-15T07:13:25;44.70;;;21.00;;
51824;SDS011;37879;52.986;6.282;2022-11-15T07:15:51;30.42;;;18.00;;
51824;SDS011;37879;52.986;6.282;2022-11-15T07:18:17;36.45;;;19.45;;
51824;SDS011;37879;52.986;6.282;2022-11-15T07:20:43;37.85;;;19.65;;
51824;SDS011;37879;52.986;6.282;2022-11-15T07:23:09;45.20;;;22.08;;
51824;SDS011;37879;52.986;6.282;2022-11-15T07:25:34;41.70;;;20.77;;
51824;SDS011;37879;52.986;6.282;2022-11-15T07:28:01;35.20;;;18.08;;
51824;SDS011;37879;52.986;6.282;2022-11-15T07:30:27;34.88;;;16.42;;
51824;SDS011;37879;52.986;6.282;2022-11-15T07:32:57;33.10;;;18.40;;
51824;SDS011;37879;52.986;6.282;2022-11-15T07:35:24;29.95;;;17.35;;
51824;SDS011;37879;52.986;6.282;2022-11-15T07:40:20;32.05;;;16.35;;
51824;SDS011;37879;52.986;6.282;2022-11-15T07:42:45;34.97;;;18.38;;
51824;SDS011;37879;52.986;6.282;2022-11-15T07:47:48;34.00;;;18.25;;
51824;SDS011;37879;52.986;6.282;2022-11-15T07:50:15;33.03;;;17.60;;
51824;SDS011;37879;52.986;6.282;2022-11-15T07:52:41;38.08;;;21.17;;
51824;SDS011;37879;52.986;6.282;2022-11-15T07:55:07;32.70;;;16.38;;
51824;SDS011;37879;52.986;6.282;2022-11-15T07:57:33;33.40;;;18.50;;
51824;SDS011;37879;52.986;6.282;2022-11-15T07:59:59;34.78;;;18.38;;
51824;SDS011;37879;52.986;6.282;2022-11-15T08:02:24;36.00;;;18.90;;
51824;SDS011;37879;52.986;6.282;2022-11-15T08:04:50;35.78;;;19.58;;
51824;SDS011;37879;52.986;6.282;2022-11-15T08:07:16;31.60;;;18.05;;
51824;SDS011;37879;52.986;6.282;2022-11-15T08:09:42;24.17;;;13.07;;
51824;SDS011;37879;52.986;6.282;2022-11-15T08:12:07;32.20;;;19.90;;
51824;SDS011;37879;52.986;6.282;2022-11-15T08:14:34;34.58;;;19.65;;
51824;SDS011;37879;52.986;6.282;2022-11-15T08:17:00;30.75;;;19.58;;
51824;SDS011;37879;52.986;6.282;2022-11-15T08:19:26;27.40;;;16.15;;
51824;SDS011;37879;52.986;6.282;2022-11-15T08:21:52;31.00;;;18.15;;
51824;SDS011;37879;52.986;6.282;2022-11-15T08:24:17;28.77;;;17.02;;
51824;SDS011;37879;52.986;6.282;2022-11-15T08:26:43;23.40;;;12.98;;
51824;SDS011;37879;52.986;6.282;2022-11-15T08:29:09;25.08;;;14.90;;
51824;SDS011;37879;52.986;6.282;2022-11-15T08:31:35;30.48;;;16.63;;
51824;SDS011;37879;52.986;6.282;2022-11-15T08:34:02;28.92;;;16.98;;
51824;SDS011;37879;52.986;6.282;2022-11-15T08:36:28;28.08;;;16.90;;
51824;SDS011;37879;52.986;6.282;2022-11-15T08:38:54;29.92;;;16.98;;
51824;SDS011;37879;52.986;6.282;2022-11-15T08:41:41;36.42;;;17.00;;
51824;SDS011;37879;52.986;6.282;2022-11-15T08:46:31;24.15;;;15.10;;
51824;SDS011;37879;52.986;6.282;2022-11-15T08:48:57;23.77;;;12.90;;
51824;SDS011;37879;52.986;6.282;2022-11-15T08:51:23;27.30;;;15.80;;
51824;SDS011;37879;52.986;6.282;2022-11-15T08:53:48;27.70;;;17.08;;
51824;SDS011;37879;52.986;6.282;2022-11-15T08:56:14;27.58;;;16.60;;
51824;SDS011;37879;52.986;6.282;2022-11-15T08:58:40;28.25;;;17.48;;
51824;SDS011;37879;52.986;6.282;2022-11-15T09:01:13;23.27;;;12.77;;
51824;SDS011;37879;52.986;6.282;2022-11-15T09:03:41;25.98;;;15.27;;
51824;SDS011;37879;52.986;6.282;2022-11-15T09:06:07;29.90;;;16.15;;
51824;SDS011;37879;52.986;6.282;2022-11-15T09:08:34;26.70;;;14.57;;
51824;SDS011;37879;52.986;6.282;2022-11-15T09:11:02;27.77;;;15.85;;
51824;SDS011;37879;52.986;6.282;2022-11-15T09:13:29;28.05;;;15.20;;
51824;SDS011;37879;52.986;6.282;2022-11-15T09:15:57;32.38;;;16.48;;
51824;SDS011;37879;52.986;6.282;2022-11-15T09:18:24;25.80;;;14.30;;
51824;SDS011;37879;52.986;6.282;2022-11-15T09:20:50;27.52;;;16.77;;
51824;SDS011;37879;52.986;6.282;2022-11-15T09:23:15;28.10;;;15.95;;
51824;SDS011;37879;52.986;6.282;2022-11-15T09:25:41;23.15;;;14.07;;
51824;SDS011;37879;52.986;6.282;2022-11-15T09:28:07;26.67;;;15.75;;
51824;SDS011;37879;52.986;6.282;2022-11-15T09:30:33;24.98;;;16.27;;
51824;SDS011;37879;52.986;6.282;2022-11-15T09:32:58;27.35;;;15.57;;
51824;SDS011;37879;52.986;6.282;2022-11-15T09:35:31;20.67;;;13.15;;
51824;SDS011;37879;52.986;6.282;2022-11-15T09:37:57;22.88;;;12.52;;
51824;SDS011;37879;52.986;6.282;2022-11-15T09:40:23;26.65;;;15.40;;
51824;SDS011;37879;52.986;6.282;2022-11-15T09:51:19;25.77;;;14.50;;
51824;SDS011;37879;52.986;6.282;2022-11-15T09:54:01;21.38;;;13.15;;
51824;SDS011;37879;52.986;6.282;2022-11-15T09:56:31;24.45;;;15.43;;
51824;SDS011;37879;52.986;6.282;2022-11-15T10:01:56;26.60;;;14.77;;
51824;SDS011;37879;52.986;6.282;2022-11-15T10:04:41;23.33;;;14.18;;
51824;SDS011;37879;52.986;6.282;2022-11-15T10:09:45;21.98;;;13.48;;
51824;SDS011;37879;52.986;6.282;2022-11-15T10:12:17;21.42;;;11.68;;
51824;SDS011;37879;52.986;6.282;2022-11-15T10:14:45;25.25;;;13.15;;
51824;SDS011;37879;52.986;6.282;2022-11-15T10:20:06;26.90;;;15.77;;
51824;SDS011;37879;52.986;6.282;2022-11-15T10:22:39;26.63;;;17.23;;
51824;SDS011;37879;52.986;6.282;2022-11-15T10:30:51;21.20;;;13.13;;
51824;SDS011;37879;52.986;6.282;2022-11-15T10:33:34;21.33;;;11.85;;
51824;SDS011;37879;52.986;6.282;2022-11-15T10:36:14;14.57;;;9.52;;
51824;SDS011;37879;52.986;6.282;2022-11-15T10:41:15;14.60;;;9.63;;
51824;SDS011;37879;52.986;6.282;2022-11-15T10:43:42;14.43;;;8.88;;
51824;SDS011;37879;52.986;6.282;2022-11-15T10:46:22;15.70;;;8.88;;
51824;SDS011;37879;52.986;6.282;2022-11-15T10:48:49;15.82;;;9.95;;
51824;SDS011;37879;52.986;6.282;2022-11-15T10:54:10;20.08;;;11.35;;
51824;SDS011;37879;52.986;6.282;2022-11-15T10:56:36;17.20;;;11.93;;
51824;SDS011;37879;52.986;6.282;2022-11-15T10:59:02;18.65;;;11.32;;
51824;SDS011;37879;52.986;6.282;2022-11-15T11:01:28;19.80;;;10.95;;
51824;SDS011;37879;52.986;6.282;2022-11-15T11:03:58;14.48;;;8.35;;
51824;SDS011;37879;52.986;6.282;2022-11-15T11:06:24;10.45;;;6.50;;
51824;SDS011;37879;52.986;6.282;2022-11-15T11:08:57;17.35;;;8.20;;
51824;SDS011;37879;52.986;6.282;2022-11-15T11:11:47;12.32;;;8.88;;
51824;SDS011;37879;52.986;6.282;2022-11-15T11:14:12;12.25;;;8.45;;
51824;SDS011;37879;52.986;6.282;2022-11-15T11:16:49;8.63;;;5.53;;
51824;SDS011;37879;52.986;6.282;2022-11-15T11:19:37;11.10;;;7.22;;
51824;SDS011;37879;52.986;6.282;2022-11-15T11:22:17;10.20;;;6.57;;
51824;SDS011;37879;52.986;6.282;2022-11-15T11:30:45;8.48;;;4.22;;
51824;SDS011;37879;52.986;6.282;2022-11-15T11:33:17;9.77;;;4.65;;
51824;SDS011;37879;52.986;6.282;2022-11-15T11:36:03;6.43;;;4.80;;
51824;SDS011;37879;52.986;6.282;2022-11-15T11:49:56;7.25;;;4.43;;
51824;SDS011;37879;52.986;6.282;2022-11-15T11:52:34;6.28;;;4.47;;
51824;SDS011;37879;52.986;6.282;2022-11-15T11:55:21;8.75;;;5.10;;
51824;SDS011;37879;52.986;6.282;2022-11-15T12:00:43;8.38;;;3.92;;
51824;SDS011;37879;52.986;6.282;2022-11-15T12:06:02;6.25;;;4.13;;
51824;SDS011;37879;52.986;6.282;2022-11-15T12:11:23;8.20;;;3.97;;
51824;SDS011;37879;52.986;6.282;2022-11-15T12:14:00;6.05;;;3.45;;
51824;SDS011;37879;52.986;6.282;2022-11-15T12:16:31;13.90;;;4.03;;
51824;SDS011;37879;52.986;6.282;2022-11-15T12:19:02;10.32;;;4.20;;
51824;SDS011;37879;52.986;6.282;2022-11-15T12:24:08;5.88;;;3.55;;
51824;SDS011;37879;52.986;6.282;2022-11-15T12:27:05;6.32;;;3.50;;
51824;SDS011;37879;52.986;6.282;2022-11-15T12:29:45;7.57;;;3.83;;
51824;SDS011;37879;52.986;6.282;2022-11-15T12:32:28;8.23;;;4.07;;
51824;SDS011;37879;52.986;6.282;2022-11-15T12:34:58;12.07;;;4.30;;
51824;SDS011;37879;52.986;6.282;2022-11-15T12:37:46;7.25;;;3.67;;
51824;SDS011;37879;52.986;6.282;2022-11-15T12:40:17;11.65;;;5.00;;
51824;SDS011;37879;52.986;6.282;2022-11-15T12:46:02;5.68;;;3.85;;
51824;SDS011;37879;52.986;6.282;2022-11-15T12:51:01;6.07;;;2.75;;
51824;SDS011;37879;52.986;6.282;2022-11-15T12:53:31;7.38;;;2.58;;
51824;SDS011;37879;52.986;6.282;2022-11-15T12:58:47;5.50;;;2.63;;
51824;SDS011;37879;52.986;6.282;2022-11-15T13:04:44;3.75;;;2.60;;
51824;SDS011;37879;52.986;6.282;2022-11-15T13:06:45;4.60;;;2.25;;
51824;SDS011;37879;52.986;6.282;2022-11-15T13:14:52;2.60;;;1.38;;
51824;SDS011;37879;52.986;6.282;2022-11-15T13:20:11;4.55;;;1.55;;
51824;SDS011;37879;52.986;6.282;2022-11-15T13:28:35;4.55;;;2.50;;
51824;SDS011;37879;52.986;6.282;2022-11-15T13:33:49;5.53;;;1.83;;
51824;SDS011;37879;52.986;6.282;2022-11-15T13:36:18;3.30;;;1.95;;
51824;SDS011;37879;52.986;6.282;2022-11-15T13:39:25;2.65;;;1.73;;
51824;SDS011;37879;52.986;6.282;2022-11-15T13:41:55;6.82;;;2.35;;
51824;SDS011;37879;52.986;6.282;2022-11-15T13:44:22;3.22;;;1.90;;
51824;SDS011;37879;52.986;6.282;2022-11-15T13:47:03;3.70;;;1.98;;
51824;SDS011;37879;52.986;6.282;2022-11-15T13:49:39;3.58;;;2.20;;
51824;SDS011;37879;52.986;6.282;2022-11-15T13:52:06;5.72;;;2.63;;
51824;SDS011;37879;52.986;6.282;2022-11-15T13:57:18;3.42;;;1.30;;
51824;SDS011;37879;52.986;6.282;2022-11-15T14:00:06;1.60;;;1.00;;
51824;SDS011;37879;52.986;6.282;2022-11-15T14:02:51;2.97;;;1.50;;
51824;SDS011;37879;52.986;6.282;2022-11-15T14:05:19;2.63;;;1.10;;
51824;SDS011;37879;52.986;6.282;2022-11-15T14:10:30;2.60;;;1.25;;
51824;SDS011;37879;52.986;6.282;2022-11-15T14:12:58;3.53;;;1.42;;
51824;SDS011;37879;52.986;6.282;2022-11-15T14:15:34;4.20;;;1.27;;
51824;SDS011;37879;52.986;6.282;2022-11-15T14:18:02;4.57;;;2.10;;
51824;SDS011;37879;52.986;6.282;2022-11-15T14:20:36;3.50;;;1.48;;
51824;SDS011;37879;52.986;6.282;2022-11-15T14:25:56;4.82;;;1.85;;
51824;SDS011;37879;52.986;6.282;2022-11-15T14:30:48;2.40;;;1.42;;
51824;SDS011;37879;52.986;6.282;2022-11-15T14:36:12;3.58;;;1.00;;
51824;SDS011;37879;52.986;6.282;2022-11-15T14:38:43;5.45;;;1.42;;
51824;SDS011;37879;52.986;6.282;2022-11-15T14:41:22;2.45;;;1.08;;
51824;SDS011;37879;52.986;6.282;2022-11-15T14:43:50;2.88;;;0.93;;
51824;SDS011;37879;52.986;6.282;2022-11-15T14:46:16;3.28;;;1.25;;
51824;SDS011;37879;52.986;6.282;2022-11-15T14:48:42;2.95;;;0.90;;
51824;SDS011;37879;52.986;6.282;2022-11-15T14:51:09;3.08;;;1.40;;
51824;SDS011;37879;52.986;6.282;2022-11-15T14:53:38;5.90;;;1.65;;
51824;SDS011;37879;52.986;6.282;2022-11-15T14:56:04;4.30;;;1.67;;
51824;SDS011;37879;52.986;6.282;2022-11-15T14:58:29;3.05;;;1.17;;
51824;SDS011;37879;52.986;6.282;2022-11-15T15:00:55;4.85;;;1.23;;
51824;SDS011;37879;52.986;6.282;2022-11-15T15:03:21;3.08;;;1.85;;
51824;SDS011;37879;52.986;6.282;2022-11-15T15:05:47;2.10;;;0.90;;
51824;SDS011;37879;52.986;6.282;2022-11-15T15:08:15;4.50;;;0.82;;
51824;SDS011;37879;52.986;6.282;2022-11-15T15:10:42;7.50;;;1.63;;
51824;SDS011;37879;52.986;6.282;2022-11-15T15:13:20;3.47;;;1.42;;
51824;SDS011;37879;52.986;6.282;2022-11-15T15:15:47;2.63;;;1.13;;
51824;SDS011;37879;52.986;6.282;2022-11-15T15:18:13;2.95;;;1.15;;
51824;SDS011;37879;52.986;6.282;2022-11-15T15:20:40;4.95;;;1.00;;
51824;SDS011;37879;52.986;6.282;2022-11-15T15:23:17;4.75;;;1.35;;
51824;SDS011;37879;52.986;6.282;2022-11-15T15:25:44;4.90;;;0.80;;
51824;SDS011;37879;52.986;6.282;2022-11-15T15:28:11;2.60;;;1.25;;
51824;SDS011;37879;52.986;6.282;2022-11-15T15:30:37;3.05;;;1.85;;
51824;SDS011;37879;52.986;6.282;2022-11-15T15:33:03;6.43;;;2.00;;
51824;SDS011;37879;52.986;6.282;2022-11-15T15:35:29;3.78;;;1.98;;
51824;SDS011;37879;52.986;6.282;2022-11-15T15:37:57;3.63;;;1.98;;
51824;SDS011;37879;52.986;6.282;2022-11-15T15:40:23;5.97;;;2.40;;
51824;SDS011;37879;52.986;6.282;2022-11-15T15:42:50;4.85;;;2.30;;
51824;SDS011;37879;52.986;6.282;2022-11-15T15:45:16;4.28;;;2.25;;
51824;SDS011;37879;52.986;6.282;2022-11-15T15:47:43;6.82;;;3.22;;
51824;SDS011;37879;52.986;6.282;2022-11-15T15:50:18;4.95;;;3.60;;
51824;SDS011;37879;52.986;6.282;2022-11-15T15:52:48;6.25;;;3.67;;
51824;SDS011;37879;52.986;6.282;2022-11-15T15:55:14;8.35;;;3.80;;
51824;SDS011;37879;52.986;6.282;2022-11-15T15:57:40;7.72;;;4.53;;
51824;SDS011;37879;52.986;6.282;2022-11-15T16:00:06;6.15;;;4.22;;
51824;SDS011;37879;52.986;6.282;2022-11-15T16:02:33;7.55;;;4.88;;
51824;SDS011;37879;52.986;6.282;2022-11-15T16:04:59;8.35;;;4.40;;
51824;SDS011;37879;52.986;6.282;2022-11-15T16:07:25;9.10;;;4.45;;
51824;SDS011;37879;52.986;6.282;2022-11-15T16:09:53;9.07;;;4.93;;
51824;SDS011;37879;52.986;6.282;2022-11-15T16:12:25;10.27;;;4.88;;
51824;SDS011;37879;52.986;6.282;2022-11-15T16:14:55;9.32;;;6.53;;
51824;SDS011;37879;52.986;6.282;2022-11-15T16:17:22;9.25;;;5.10;;
51824;SDS011;37879;52.986;6.282;2022-11-15T16:19:58;9.23;;;6.50;;
51824;SDS011;37879;52.986;6.282;2022-11-15T16:22:24;9.48;;;5.80;;
51824;SDS011;37879;52.986;6.282;2022-11-15T16:24:50;7.88;;;5.75;;
51824;SDS011;37879;52.986;6.282;2022-11-15T16:27:16;9.20;;;5.35;;
51824;SDS011;37879;52.986;6.282;2022-11-15T16:29:44;9.15;;;6.05;;
51824;SDS011;37879;52.986;6.282;2022-11-15T16:32:10;7.50;;;5.93;;
51824;SDS011;37879;52.986;6.282;2022-11-15T16:34:37;8.30;;;5.10;;
51824;SDS011;37879;52.986;6.282;2022-11-15T16:37:03;6.70;;;4.82;;
51824;SDS011;37879;52.986;6.282;2022-11-15T16:39:29;7.57;;;5.75;;
51824;SDS011;37879;52.986;6.282;2022-11-15T16:41:56;8.98;;;5.78;;
51824;SDS011;37879;52.986;6.282;2022-11-15T16:44:22;7.00;;;4.90;;
51824;SDS011;37879;52.986;6.282;2022-11-15T16:46:49;7.10;;;4.85;;
51824;SDS011;37879;52.986;6.282;2022-11-15T16:49:16;7.07;;;4.70;;
51824;SDS011;37879;52.986;6.282;2022-11-15T16:51:46;6.97;;;4.55;;
51824;SDS011;37879;52.986;6.282;2022-11-15T16:54:13;9.25;;;4.40;;